createdAt,value
2023-07-30T00:01:12.232Z,7.50
2023-07-30T00:03:39.748Z,4.28
2023-07-30T00:06:07.390Z,4.07
2023-07-30T00:08:34.837Z,6.18
2023-07-30T00:11:02.261Z,7.13
2023-07-30T00:13:29.769Z,5.63
2023-07-30T00:15:57.226Z,5.82
2023-07-30T00:18:24.715Z,6.75
2023-07-30T00:20:52.200Z,5.70
2023-07-30T00:23:19.650Z,5.93
2023-07-30T00:25:47.106Z,7.60
2023-07-30T00:28:14.579Z,6.70
2023-07-30T00:30:42.032Z,7.65
2023-07-30T00:33:09.594Z,4.63
2023-07-30T00:35:37.115Z,5.43
2023-07-30T00:38:04.535Z,5.38
2023-07-30T00:40:32.075Z,6.03
2023-07-30T00:42:59.501Z,6.63
2023-07-30T00:45:26.951Z,5.10
2023-07-30T00:47:55.027Z,6.00
2023-07-30T00:50:22.457Z,6.57
2023-07-30T00:52:50.319Z,5.13
2023-07-30T00:55:17.944Z,6.25
2023-07-30T00:57:46.299Z,5.05
2023-07-30T01:00:14.174Z,5.35
2023-07-30T01:02:41.666Z,6.57
2023-07-30T01:05:09.242Z,4.90
2023-07-30T01:07:36.737Z,6.05
2023-07-30T01:10:04.678Z,6.25
2023-07-30T01:12:33.077Z,5.30
2023-07-30T01:15:01.126Z,4.40
2023-07-30T01:17:28.659Z,6.00
2023-07-30T01:19:56.941Z,6.80
2023-07-30T01:22:24.801Z,5.20
2023-07-30T01:24:52.427Z,5.47
2023-07-30T01:27:30.553Z,4.47
2023-07-30T01:30:03.921Z,4.18
2023-07-30T01:32:31.840Z,5.00
2023-07-30T01:34:59.969Z,3.90
2023-07-30T01:37:27.645Z,6.82
2023-07-30T01:39:55.573Z,5.78
2023-07-30T01:42:23.012Z,5.75
2023-07-30T01:44:50.417Z,5.60
2023-07-30T01:47:17.881Z,3.67
2023-07-30T01:49:45.285Z,4.10
2023-07-30T01:52:12.704Z,3.60
2023-07-30T01:54:40.248Z,5.53
2023-07-30T01:57:07.718Z,5.60
2023-07-30T01:59:35.155Z,4.70
2023-07-30T02:02:02.799Z,3.42
2023-07-30T02:04:30.375Z,5.50
2023-07-30T02:06:57.928Z,4.25
2023-07-30T02:09:25.342Z,4.90
2023-07-30T02:11:52.962Z,4.80
2023-07-30T02:14:20.686Z,3.60
2023-07-30T02:16:48.129Z,3.60
2023-07-30T02:19:15.613Z,3.50
2023-07-30T02:21:44.207Z,5.07
2023-07-30T02:24:13.001Z,5.20
2023-07-30T02:26:40.728Z,4.25
2023-07-30T02:29:08.609Z,5.05
2023-07-30T02:31:36.288Z,5.47
2023-07-30T02:34:04.015Z,3.55
2023-07-30T02:36:31.468Z,3.85
2023-07-30T02:38:58.907Z,4.10
2023-07-30T02:41:26.379Z,6.03
2023-07-30T02:43:53.858Z,4.75
2023-07-30T02:46:21.288Z,4.00
2023-07-30T02:48:48.725Z,7.15
2023-07-30T02:51:16.224Z,3.75
2023-07-30T02:53:45.820Z,5.63
2023-07-30T02:56:13.234Z,5.85
2023-07-30T02:58:40.707Z,5.50
2023-07-30T03:01:08.980Z,7.63
2023-07-30T03:03:36.509Z,4.43
2023-07-30T03:06:04.042Z,6.13
2023-07-30T03:08:31.537Z,5.07
2023-07-30T03:11:01.952Z,4.65
2023-07-30T03:15:56.673Z,4.53
2023-07-30T03:18:24.228Z,4.95
2023-07-30T03:20:51.653Z,3.75
2023-07-30T03:23:19.151Z,4.72
2023-07-30T03:25:46.598Z,5.50
2023-07-30T03:28:14.053Z,3.75
2023-07-30T03:30:41.587Z,5.28
2023-07-30T03:33:09.076Z,5.43
2023-07-30T03:35:36.541Z,4.60
2023-07-30T03:38:04.117Z,4.63
2023-07-30T03:40:31.617Z,4.15
2023-07-30T03:42:59.026Z,3.78
2023-07-30T03:45:26.541Z,3.83
2023-07-30T03:47:54.002Z,3.67
2023-07-30T03:50:21.473Z,3.45
2023-07-30T03:52:48.996Z,6.45
2023-07-30T03:55:17.358Z,3.85
2023-07-30T03:57:44.809Z,4.88
2023-07-30T04:00:12.877Z,5.00
2023-07-30T04:02:40.499Z,3.50
2023-07-30T04:05:08.131Z,3.53
2023-07-30T04:07:35.998Z,5.32
2023-07-30T04:10:03.513Z,4.28
2023-07-30T04:12:30.956Z,4.47
2023-07-30T04:14:58.444Z,6.10
2023-07-30T04:17:28.527Z,4.47
2023-07-30T04:19:56.084Z,3.78
2023-07-30T04:22:25.902Z,4.85
2023-07-30T04:24:53.846Z,3.95
2023-07-30T04:27:21.644Z,4.88
2023-07-30T04:29:49.169Z,4.28
2023-07-30T04:32:16.665Z,5.05
2023-07-30T04:34:44.086Z,4.53
2023-07-30T04:37:11.864Z,4.80
2023-07-30T04:39:39.354Z,5.10
2023-07-30T04:42:07.016Z,5.47
2023-07-30T04:44:34.499Z,5.57
2023-07-30T04:47:01.972Z,4.55
2023-07-30T04:49:34.427Z,5.65
2023-07-30T04:52:01.861Z,5.63
2023-07-30T04:54:44.499Z,5.18
2023-07-30T04:57:11.976Z,6.47
2023-07-30T04:59:39.472Z,6.55
2023-07-30T05:02:07.100Z,5.03
2023-07-30T05:04:34.501Z,3.88
2023-07-30T05:07:02.000Z,5.63
2023-07-30T05:09:29.443Z,7.80
2023-07-30T05:11:56.895Z,6.05
2023-07-30T05:14:24.396Z,6.10
2023-07-30T05:16:51.823Z,5.72
2023-07-30T05:19:19.293Z,4.47
2023-07-30T05:21:46.789Z,4.60
2023-07-30T05:24:14.253Z,4.65
2023-07-30T05:26:41.690Z,4.65
2023-07-30T05:29:22.362Z,7.38
2023-07-30T05:31:49.853Z,5.70
2023-07-30T05:34:17.332Z,10.52
2023-07-30T05:36:44.809Z,10.43
2023-07-30T05:39:12.242Z,8.30
2023-07-30T05:41:39.897Z,7.35
2023-07-30T05:44:07.670Z,6.88
2023-07-30T05:46:35.251Z,7.40
2023-07-30T05:49:02.716Z,6.53
2023-07-30T05:51:30.161Z,4.90
2023-07-30T05:53:57.779Z,7.97
2023-07-30T05:56:25.261Z,6.22
2023-07-30T05:58:52.691Z,8.98
2023-07-30T06:01:21.186Z,4.88
2023-07-30T06:03:48.747Z,5.72
2023-07-30T06:06:16.328Z,8.80
2023-07-30T06:08:43.772Z,6.22
2023-07-30T06:11:11.248Z,8.65
2023-07-30T06:13:39.242Z,10.23
2023-07-30T06:16:06.699Z,6.70
2023-07-30T06:18:34.209Z,5.65
2023-07-30T06:21:01.614Z,7.03
2023-07-30T06:23:29.060Z,6.97
2023-07-30T06:25:56.498Z,6.85
2023-07-30T06:28:24.712Z,7.60
2023-07-30T06:30:52.334Z,8.27
2023-07-30T06:33:19.904Z,6.22
2023-07-30T06:35:47.451Z,11.73
2023-07-30T06:38:15.014Z,7.80
2023-07-30T06:40:42.584Z,7.10
2023-07-30T06:43:10.014Z,7.00
2023-07-30T06:45:37.522Z,6.47
2023-07-30T06:48:05.095Z,3.90
2023-07-30T06:50:32.542Z,5.97
2023-07-30T06:53:00.091Z,5.85
2023-07-30T06:55:27.506Z,7.22
2023-07-30T06:57:54.932Z,4.63
2023-07-30T07:00:23.089Z,5.65
2023-07-30T07:02:51.566Z,8.60
2023-07-30T07:05:19.146Z,6.43
2023-07-30T07:07:49.891Z,4.72
2023-07-30T07:10:17.469Z,5.15
2023-07-30T07:12:45.149Z,7.18
2023-07-30T07:15:12.759Z,5.28
2023-07-30T07:17:40.600Z,7.07
2023-07-30T07:20:08.601Z,5.18
2023-07-30T07:22:36.432Z,6.15
2023-07-30T07:25:04.052Z,4.10
2023-07-30T07:27:31.618Z,4.13
2023-07-30T07:29:59.145Z,4.88
2023-07-30T07:32:26.605Z,7.00
2023-07-30T07:34:54.081Z,4.53
2023-07-30T07:37:21.643Z,5.95
2023-07-30T07:39:49.153Z,5.88
2023-07-30T07:42:16.639Z,4.13
2023-07-30T07:44:47.360Z,6.63
2023-07-30T07:47:14.900Z,6.35
2023-07-30T07:49:42.514Z,4.05
2023-07-30T07:52:10.154Z,4.72
2023-07-30T07:54:37.807Z,6.78
2023-07-30T07:57:05.519Z,9.30
2023-07-30T07:59:32.974Z,5.97
2023-07-30T08:02:08.740Z,7.53
2023-07-30T08:04:36.645Z,4.28
2023-07-30T08:07:04.869Z,5.22
2023-07-30T08:09:32.725Z,4.20
2023-07-30T08:12:01.822Z,5.35
2023-07-30T08:14:29.338Z,5.97
2023-07-30T08:16:56.826Z,4.07
2023-07-30T08:19:24.237Z,5.63
2023-07-30T08:21:51.719Z,5.57
2023-07-30T08:24:19.133Z,4.50
2023-07-30T08:26:47.993Z,4.88
2023-07-30T08:29:16.228Z,4.95
2023-07-30T08:31:43.755Z,4.38
2023-07-30T08:34:11.288Z,4.50
2023-07-30T08:36:39.164Z,4.22
2023-07-30T08:39:07.042Z,5.05
2023-07-30T08:41:34.548Z,5.25
2023-07-30T08:44:03.026Z,4.32
2023-07-30T08:46:30.590Z,4.32
2023-07-30T08:48:58.515Z,5.00
2023-07-30T08:51:27.698Z,5.20
2023-07-30T08:53:56.098Z,5.07
2023-07-30T08:56:23.724Z,4.60
2023-07-30T08:58:54.666Z,5.00
2023-07-30T09:01:22.519Z,3.95
2023-07-30T09:03:51.975Z,4.20
2023-07-30T09:06:19.516Z,4.82
2023-07-30T09:08:46.930Z,5.10
2023-07-30T09:11:14.360Z,6.03
2023-07-30T09:13:45.675Z,6.25
2023-07-30T09:16:14.374Z,5.18
2023-07-30T09:18:44.588Z,7.18
2023-07-30T09:21:13.165Z,4.88
2023-07-30T09:23:47.567Z,9.15
2023-07-30T09:26:15.516Z,4.43
2023-07-30T09:28:42.961Z,5.32
2023-07-30T09:31:22.330Z,4.45
2023-07-30T09:33:50.545Z,4.15
2023-07-30T09:36:21.308Z,5.25
2023-07-30T09:38:50.998Z,5.22
2023-07-30T09:41:18.592Z,5.97
2023-07-30T09:43:46.848Z,6.35
2023-07-30T09:46:14.417Z,5.72
2023-07-30T09:48:41.862Z,4.93
2023-07-30T09:51:10.491Z,4.45
2023-07-30T09:53:37.954Z,5.80
2023-07-30T09:56:07.087Z,5.03
2023-07-30T09:58:34.557Z,7.93
2023-07-30T10:01:02.881Z,4.95
2023-07-30T10:03:30.424Z,5.25
2023-07-30T10:06:03.091Z,4.78
2023-07-30T10:08:31.976Z,5.90
2023-07-30T10:11:01.562Z,4.95
2023-07-30T10:13:30.013Z,8.02
2023-07-30T10:15:59.486Z,4.93
2023-07-30T10:18:47.196Z,4.70
2023-07-30T10:21:24.295Z,5.63
2023-07-30T10:24:05.154Z,4.88
2023-07-30T10:26:34.003Z,5.43
2023-07-30T10:29:27.730Z,5.68
2023-07-30T10:31:59.252Z,6.13
2023-07-30T10:34:45.546Z,5.80
2023-07-30T10:37:13.063Z,4.80
2023-07-30T10:39:40.514Z,5.00
2023-07-30T10:42:09.737Z,5.03
2023-07-30T10:44:37.472Z,5.72
2023-07-30T10:47:05.450Z,6.13
2023-07-30T10:49:38.683Z,5.78
2023-07-30T10:52:06.801Z,6.60
2023-07-30T10:54:37.814Z,6.10
2023-07-30T10:57:05.433Z,5.57
2023-07-30T10:59:41.790Z,6.53
2023-07-30T11:02:10.381Z,4.50
2023-07-30T11:04:37.871Z,7.03
2023-07-30T11:07:05.632Z,7.53
2023-07-30T11:09:33.218Z,4.90
2023-07-30T11:12:00.705Z,5.15
2023-07-30T11:14:28.609Z,5.00
2023-07-30T11:17:01.285Z,6.13
2023-07-30T11:19:32.384Z,6.68
2023-07-30T11:22:00.045Z,4.72
2023-07-30T11:24:36.959Z,6.90
2023-07-30T11:27:04.942Z,5.88
2023-07-30T11:29:32.590Z,6.75
2023-07-30T11:32:02.230Z,4.55
2023-07-30T11:34:30.097Z,5.50
2023-07-30T11:36:58.278Z,5.72
2023-07-30T11:39:25.968Z,4.93
2023-07-30T11:41:53.608Z,5.25
2023-07-30T11:44:33.853Z,6.35
2023-07-30T11:47:01.298Z,6.20
2023-07-30T11:49:29.624Z,5.43
2023-07-30T11:52:10.651Z,7.50
2023-07-30T11:54:39.237Z,5.88
2023-07-30T11:57:06.848Z,5.47
2023-07-30T11:59:34.959Z,4.55
2023-07-30T12:02:02.972Z,5.32
2023-07-30T12:05:11.216Z,5.97
2023-07-30T12:07:43.034Z,5.47
2023-07-30T12:10:14.833Z,5.30
2023-07-30T12:12:48.437Z,5.63
2023-07-30T12:15:16.232Z,5.82
2023-07-30T12:17:43.840Z,5.88
2023-07-30T12:20:13.147Z,7.30
2023-07-30T12:22:40.677Z,4.95
2023-07-30T12:25:10.222Z,3.58
2023-07-30T12:27:37.841Z,4.40
2023-07-30T12:30:05.543Z,4.90
2023-07-30T12:32:32.997Z,6.13
2023-07-30T12:35:00.482Z,4.50
2023-07-30T12:37:28.006Z,5.60
2023-07-30T12:39:55.546Z,4.85
2023-07-30T12:42:22.994Z,3.97
2023-07-30T12:44:50.452Z,4.68
2023-07-30T12:47:18.237Z,6.07
2023-07-30T12:49:45.689Z,4.55
2023-07-30T12:52:13.470Z,4.95
2023-07-30T12:54:41.813Z,5.78
2023-07-30T12:57:09.252Z,5.13
2023-07-30T12:59:37.592Z,5.50
2023-07-30T13:02:05.577Z,3.85
2023-07-30T13:04:33.209Z,7.20
2023-07-30T13:07:00.777Z,3.92
2023-07-30T13:09:28.262Z,4.63
2023-07-30T13:11:55.690Z,4.47
2023-07-30T13:14:23.192Z,4.25
2023-07-30T13:16:50.786Z,4.45
2023-07-30T13:19:18.320Z,4.53
2023-07-30T13:21:45.758Z,4.15
2023-07-30T13:24:13.240Z,4.35
2023-07-30T13:26:40.770Z,4.65
2023-07-30T13:29:08.758Z,3.88
2023-07-30T13:31:36.346Z,3.85
2023-07-30T13:34:04.094Z,3.88
2023-07-30T13:36:32.799Z,4.78
2023-07-30T13:39:00.330Z,2.92
2023-07-30T13:41:27.811Z,3.40
2023-07-30T13:43:55.263Z,3.28
2023-07-30T13:46:22.834Z,3.05
2023-07-30T13:48:50.387Z,4.43
2023-07-30T13:51:18.990Z,4.28
2023-07-30T13:53:46.586Z,5.40
2023-07-30T13:56:14.111Z,6.30
2023-07-30T13:58:41.867Z,4.15
2023-07-30T14:01:10.725Z,10.13
2023-07-30T14:03:38.340Z,4.65
2023-07-30T14:06:05.987Z,3.72
2023-07-30T14:08:33.470Z,3.75
2023-07-30T14:11:01.445Z,4.45
2023-07-30T14:13:29.792Z,2.83
2023-07-30T14:16:02.717Z,5.43
2023-07-30T14:18:37.550Z,3.20
2023-07-30T14:21:12.756Z,2.28
2023-07-30T14:23:44.547Z,3.13
2023-07-30T14:26:12.167Z,3.35
2023-07-30T14:28:39.717Z,2.92
2023-07-30T14:31:08.487Z,3.38
2023-07-30T14:33:36.633Z,3.72
2023-07-30T14:36:05.087Z,2.95
2023-07-30T14:38:35.374Z,4.00
2023-07-30T14:41:03.629Z,3.45
2023-07-30T14:43:31.094Z,4.05
2023-07-30T14:45:58.678Z,3.65
2023-07-30T14:48:26.305Z,3.25
2023-07-30T14:50:53.763Z,4.85
2023-07-30T14:53:21.241Z,3.80
2023-07-30T14:55:48.891Z,3.08
2023-07-30T14:58:16.485Z,2.88
2023-07-30T15:00:45.059Z,3.88
2023-07-30T15:03:13.686Z,3.47
2023-07-30T15:05:41.301Z,4.05
2023-07-30T15:08:08.780Z,3.05
2023-07-30T15:10:38.978Z,2.05
2023-07-30T15:15:33.808Z,3.42
2023-07-30T15:18:01.289Z,2.88
2023-07-30T15:20:29.348Z,3.40
2023-07-30T15:22:56.909Z,2.97
2023-07-30T15:25:24.567Z,2.92
2023-07-30T15:27:52.089Z,3.85
2023-07-30T15:30:20.133Z,3.20
2023-07-30T15:32:51.501Z,2.72
2023-07-30T15:35:18.970Z,3.58
2023-07-30T15:37:46.955Z,4.88
2023-07-30T15:40:14.646Z,3.20
2023-07-30T15:42:42.773Z,4.68
2023-07-30T15:45:10.466Z,2.72
2023-07-30T15:47:38.449Z,3.85
2023-07-30T15:50:06.300Z,3.35
2023-07-30T15:52:33.789Z,2.95
2023-07-30T15:55:01.235Z,3.15
2023-07-30T15:57:29.951Z,4.25
2023-07-30T15:59:57.429Z,3.25
2023-07-30T16:02:25.059Z,2.58
2023-07-30T16:04:52.607Z,4.80
2023-07-30T16:07:20.050Z,2.80
2023-07-30T16:09:47.641Z,2.85
2023-07-30T16:12:15.278Z,3.20
2023-07-30T16:14:45.022Z,3.13
2023-07-30T16:17:15.208Z,4.03
2023-07-30T16:19:42.786Z,3.67
2023-07-30T16:22:11.432Z,4.65
2023-07-30T16:24:38.947Z,4.20
2023-07-30T16:27:06.759Z,3.00
2023-07-30T16:29:34.300Z,2.97
2023-07-30T16:32:01.833Z,2.60
2023-07-30T16:34:29.324Z,3.05
2023-07-30T16:36:56.827Z,3.65
2023-07-30T16:39:24.257Z,3.22
2023-07-30T16:41:51.872Z,3.40
2023-07-30T16:44:20.132Z,3.55
2023-07-30T16:46:47.606Z,3.15
2023-07-30T16:49:15.368Z,3.20
2023-07-30T16:51:42.882Z,4.47
2023-07-30T16:54:12.756Z,2.78
2023-07-30T16:56:40.669Z,3.83
2023-07-30T16:59:08.329Z,2.78
2023-07-30T17:01:35.862Z,2.78
2023-07-30T17:04:03.437Z,2.63
2023-07-30T17:06:30.961Z,3.03
2023-07-30T17:08:58.531Z,2.88
2023-07-30T17:11:26.073Z,2.50
2023-07-30T17:13:55.490Z,2.00
2023-07-30T17:16:25.144Z,2.45
2023-07-30T17:18:55.123Z,2.58
2023-07-30T17:21:24.443Z,3.47
2023-07-30T17:23:52.026Z,2.60
2023-07-30T17:26:19.586Z,3.90
2023-07-30T17:28:47.047Z,3.10
2023-07-30T17:31:14.700Z,2.75
2023-07-30T17:33:47.977Z,3.13
2023-07-30T17:36:21.236Z,3.92
2023-07-30T17:38:48.677Z,3.17
2023-07-30T17:41:21.736Z,3.15
2023-07-30T17:43:58.213Z,2.85
2023-07-30T17:46:43.444Z,3.33
2023-07-30T17:49:17.269Z,3.17
2023-07-30T17:51:50.800Z,2.80
2023-07-30T17:54:24.848Z,3.65
2023-07-30T17:56:52.382Z,2.28
2023-07-30T17:59:22.017Z,8.25
2023-07-30T18:01:49.544Z,4.57
2023-07-30T18:04:17.061Z,3.88
2023-07-30T18:06:44.517Z,2.95
2023-07-30T18:09:16.646Z,2.63
2023-07-30T18:11:44.335Z,3.97
2023-07-30T18:14:11.837Z,3.60
2023-07-30T18:16:39.980Z,4.40
2023-07-30T18:19:07.690Z,7.22
2023-07-30T18:21:35.168Z,11.18
2023-07-30T18:24:02.640Z,13.65
2023-07-30T18:26:30.091Z,14.98
2023-07-30T18:28:57.522Z,13.18
2023-07-30T18:31:25.045Z,8.23
2023-07-30T18:33:52.573Z,6.72
2023-07-30T18:36:19.993Z,6.60
2023-07-30T18:38:47.559Z,6.97
2023-07-30T18:41:15.023Z,7.43
2023-07-30T18:43:42.546Z,6.88
2023-07-30T18:46:10.064Z,5.00
2023-07-30T18:48:37.545Z,5.53
2023-07-30T18:51:04.982Z,5.57
2023-07-30T18:53:32.548Z,4.90
2023-07-30T18:56:02.638Z,5.82
2023-07-30T18:58:30.188Z,5.93
2023-07-30T19:00:57.676Z,7.07
2023-07-30T19:03:25.185Z,6.85
2023-07-30T19:05:54.295Z,14.32
2023-07-30T19:08:22.417Z,10.40
2023-07-30T19:10:50.043Z,9.77
2023-07-30T19:13:18.132Z,11.93
2023-07-30T19:15:46.558Z,8.57
2023-07-30T19:18:14.139Z,8.40
2023-07-30T19:20:41.668Z,10.05
2023-07-30T19:23:09.206Z,6.78
2023-07-30T19:25:36.881Z,7.25
2023-07-30T19:28:07.300Z,8.15
2023-07-30T19:30:35.335Z,7.00
2023-07-30T19:33:02.880Z,8.95
2023-07-30T19:35:37.740Z,6.80
2023-07-30T19:38:16.796Z,6.75
2023-07-30T19:40:44.221Z,7.40
2023-07-30T19:43:11.698Z,8.98
2023-07-30T19:45:39.201Z,6.50
2023-07-30T19:48:07.128Z,6.13
2023-07-30T19:50:43.933Z,6.07
2023-07-30T19:53:12.796Z,6.93
2023-07-30T19:55:45.334Z,6.35
2023-07-30T19:58:29.577Z,5.13
2023-07-30T20:00:57.615Z,4.68
2023-07-30T20:03:25.514Z,4.55
2023-07-30T20:05:53.259Z,3.92
2023-07-30T20:08:20.779Z,4.63
2023-07-30T20:10:48.243Z,5.57
2023-07-30T20:13:15.757Z,5.25
2023-07-30T20:15:44.404Z,4.80
2023-07-30T20:18:12.821Z,4.05
2023-07-30T20:20:43.124Z,4.60
2023-07-30T20:25:38.498Z,4.18
2023-07-30T20:28:07.257Z,6.25
2023-07-30T20:30:41.557Z,6.65
2023-07-30T20:33:09.138Z,4.63
2023-07-30T20:35:39.633Z,6.45
2023-07-30T20:38:07.343Z,6.72
2023-07-30T20:40:34.783Z,8.75
2023-07-30T20:43:02.378Z,7.30
2023-07-30T20:45:30.024Z,7.47
2023-07-30T20:47:57.554Z,6.63
2023-07-30T20:50:25.339Z,6.22
2023-07-30T20:52:52.787Z,7.43
2023-07-30T20:55:20.634Z,7.03
2023-07-30T20:57:48.109Z,7.63
2023-07-30T21:00:15.713Z,7.18
2023-07-30T21:02:43.383Z,5.75
2023-07-30T21:05:11.042Z,6.05
2023-07-30T21:07:38.558Z,4.75
2023-07-30T21:10:06.183Z,6.88
2023-07-30T21:12:34.161Z,5.88
2023-07-30T21:15:06.243Z,6.50
2023-07-30T21:17:34.120Z,6.75
2023-07-30T21:20:01.666Z,6.43
2023-07-30T21:22:29.128Z,6.25
2023-07-30T21:24:56.768Z,5.93
2023-07-30T21:27:24.203Z,11.73
2023-07-30T21:29:51.753Z,8.60
2023-07-30T21:32:19.319Z,8.05
2023-07-30T21:34:46.814Z,6.00
2023-07-30T21:37:14.381Z,6.03
2023-07-30T21:39:41.823Z,8.80
2023-07-30T21:42:09.286Z,6.10
2023-07-30T21:44:36.753Z,6.75
2023-07-30T21:47:04.344Z,5.93
2023-07-30T21:49:31.784Z,6.07
2023-07-30T21:51:59.330Z,7.68
2023-07-30T21:54:26.823Z,6.63
2023-07-30T21:56:54.303Z,8.77
2023-07-30T21:59:21.866Z,6.93
2023-07-30T22:01:49.373Z,7.00
2023-07-30T22:04:17.370Z,7.25
2023-07-30T22:06:44.799Z,8.10
2023-07-30T22:09:12.323Z,6.85
2023-07-30T22:11:39.834Z,6.25
2023-07-30T22:14:07.318Z,9.13
2023-07-30T22:16:34.989Z,6.18
2023-07-30T22:19:02.465Z,6.07
2023-07-30T22:21:29.885Z,7.90
2023-07-30T22:23:57.316Z,10.05
2023-07-30T22:26:24.786Z,6.45
2023-07-30T22:28:52.324Z,7.45
2023-07-30T22:31:19.779Z,7.68
2023-07-30T22:33:47.217Z,8.40
2023-07-30T22:36:14.665Z,7.00
2023-07-30T22:38:42.366Z,7.88
2023-07-30T22:41:09.799Z,6.35
2023-07-30T22:43:37.263Z,8.50
2023-07-30T22:46:04.771Z,6.57
2023-07-30T22:48:32.288Z,8.57
2023-07-30T22:50:59.745Z,5.75
2023-07-30T22:53:27.311Z,7.25
2023-07-30T22:55:54.730Z,5.72
2023-07-30T22:58:22.141Z,7.13
2023-07-30T23:00:49.724Z,7.53
2023-07-30T23:03:17.277Z,7.97
2023-07-30T23:05:44.798Z,8.27
2023-07-30T23:08:12.225Z,6.05
2023-07-30T23:10:39.700Z,8.02
2023-07-30T23:13:09.358Z,6.30
2023-07-30T23:15:37.093Z,7.38
2023-07-30T23:18:04.616Z,9.10
2023-07-30T23:20:33.441Z,8.77
2023-07-30T23:23:00.911Z,5.60
2023-07-30T23:25:28.354Z,7.82
2023-07-30T23:27:55.914Z,7.22
2023-07-30T23:30:23.378Z,8.68
2023-07-30T23:32:51.012Z,8.38
2023-07-30T23:35:18.594Z,6.75
2023-07-30T23:37:46.029Z,6.47
2023-07-30T23:40:13.596Z,6.70
2023-07-30T23:42:41.016Z,7.32
2023-07-30T23:45:08.835Z,7.60
2023-07-30T23:47:36.294Z,7.93
2023-07-30T23:50:03.776Z,7.68
2023-07-30T23:52:32.322Z,6.72
2023-07-30T23:55:00.138Z,6.32
2023-07-30T23:57:27.660Z,6.00
2023-07-30T23:59:55.106Z,6.00
